createdAt,value
2022-11-20T00:01:15.187Z,6.87
2022-11-20T00:03:42.371Z,7.09
2022-11-20T00:06:11.497Z,7.25
2022-11-20T00:08:38.165Z,7.20
2022-11-20T00:11:21.760Z,7.15
2022-11-20T00:13:50.469Z,7.09
2022-11-20T00:16:20.079Z,7.02
2022-11-20T00:18:47.408Z,7.02
2022-11-20T00:21:19.037Z,7.32
2022-11-20T00:23:45.445Z,7.35
2022-11-20T00:26:14.457Z,7.33
2022-11-20T00:28:41.875Z,7.40
2022-11-20T00:31:11.628Z,7.45
2022-11-20T00:33:38.496Z,7.38
2022-11-20T00:36:07.658Z,7.40
2022-11-20T00:38:34.665Z,7.40
2022-11-20T00:41:03.567Z,7.27
2022-11-20T00:43:29.982Z,7.02
2022-11-20T00:46:04.104Z,7.08
2022-11-20T00:48:31.105Z,7.07
2022-11-20T00:50:58.001Z,7.25
2022-11-20T00:53:24.869Z,7.58
2022-11-20T00:56:13.169Z,7.92
2022-11-20T00:58:42.670Z,8.08
2022-11-20T01:01:12.553Z,8.00
2022-11-20T01:03:41.582Z,7.94
2022-11-20T01:06:16.862Z,8.04
2022-11-20T01:08:44.274Z,7.89
2022-11-20T01:11:18.882Z,7.76
2022-11-20T01:13:46.768Z,7.75
2022-11-20T01:16:33.829Z,7.94
2022-11-20T01:19:02.732Z,7.73
2022-11-20T01:21:34.839Z,7.50
2022-11-20T01:24:02.321Z,7.54
2022-11-20T01:26:30.906Z,7.75
2022-11-20T01:28:58.553Z,7.88
2022-11-20T01:31:34.085Z,7.97
2022-11-20T01:34:03.563Z,7.80
2022-11-20T01:36:31.742Z,7.80
2022-11-20T01:39:04.667Z,7.42
2022-11-20T01:41:51.718Z,7.48
2022-11-20T01:44:21.309Z,7.34
2022-11-20T01:47:01.242Z,7.34
2022-11-20T01:49:37.053Z,7.27
2022-11-20T01:52:15.481Z,7.08
2022-11-20T01:54:48.602Z,6.83
2022-11-20T01:57:17.186Z,6.74
2022-11-20T01:59:51.014Z,6.68
2022-11-20T02:02:17.377Z,6.63
2022-11-20T02:04:44.774Z,6.69
2022-11-20T02:07:11.669Z,6.73
2022-11-20T02:09:38.024Z,6.74
2022-11-20T02:12:04.919Z,6.78
2022-11-20T02:14:31.414Z,6.76
2022-11-20T02:16:58.473Z,6.66
2022-11-20T02:19:30.836Z,6.90
2022-11-20T02:22:06.470Z,7.02
2022-11-20T02:24:32.934Z,7.13
2022-11-20T02:27:07.222Z,7.07
2022-11-20T02:29:38.212Z,7.07
2022-11-20T02:32:04.923Z,7.00
2022-11-20T02:34:31.461Z,7.27
2022-11-20T02:36:59.753Z,7.17
2022-11-20T02:39:28.646Z,7.20
2022-11-20T02:41:56.834Z,7.34
2022-11-20T02:44:23.267Z,7.12
2022-11-20T02:46:49.618Z,7.10
2022-11-20T02:49:17.392Z,6.98
2022-11-20T02:51:43.754Z,6.87
2022-11-20T02:54:10.097Z,6.98
2022-11-20T02:56:39.404Z,7.05
2022-11-20T02:59:05.731Z,7.11
2022-11-20T03:01:32.093Z,7.09
2022-11-20T03:03:58.468Z,7.15
2022-11-20T03:06:24.857Z,7.20
2022-11-20T03:08:51.335Z,7.11
2022-11-20T03:11:17.978Z,7.20
2022-11-20T03:13:44.525Z,7.47
2022-11-20T03:16:14.017Z,7.49
2022-11-20T03:18:41.648Z,7.64
2022-11-20T03:21:08.785Z,7.57
2022-11-20T03:23:35.640Z,7.57
2022-11-20T03:26:31.437Z,7.78
2022-11-20T03:29:00.341Z,7.83
2022-11-20T03:31:30.385Z,7.81
2022-11-20T03:33:58.716Z,7.69
2022-11-20T03:36:25.925Z,7.68
2022-11-20T03:38:54.740Z,7.91
2022-11-20T03:41:23.372Z,7.85
2022-11-20T03:43:50.757Z,7.95
2022-11-20T03:46:17.655Z,7.43
2022-11-20T03:48:48.787Z,7.52
2022-11-20T03:51:20.143Z,7.29
2022-11-20T03:53:48.269Z,7.32
2022-11-20T03:56:17.413Z,7.49
2022-11-20T03:58:44.605Z,7.67
2022-11-20T04:01:13.943Z,7.62
2022-11-20T04:03:42.038Z,7.65
2022-11-20T04:06:11.729Z,7.66
2022-11-20T04:08:38.773Z,7.61
2022-11-20T04:11:11.229Z,7.72
2022-11-20T04:13:37.811Z,7.68
2022-11-20T04:16:05.435Z,7.83
2022-11-20T04:18:31.764Z,8.00
2022-11-20T04:20:59.370Z,7.84
2022-11-20T04:23:28.886Z,7.71
2022-11-20T04:25:55.793Z,7.51
2022-11-20T04:28:22.304Z,7.48
2022-11-20T04:30:48.697Z,7.47
2022-11-20T04:33:15.077Z,7.55
2022-11-20T04:35:41.615Z,7.67
2022-11-20T04:38:08.178Z,7.65
2022-11-20T04:40:34.507Z,7.61
2022-11-20T04:43:00.824Z,7.39
2022-11-20T04:45:27.175Z,7.51
2022-11-20T04:47:53.634Z,7.45
2022-11-20T04:50:19.943Z,7.42
2022-11-20T04:52:46.253Z,7.49
2022-11-20T04:55:12.565Z,7.62
2022-11-20T04:57:39.063Z,7.61
2022-11-20T05:00:06.226Z,7.59
2022-11-20T05:02:33.001Z,7.72
2022-11-20T05:04:59.307Z,7.52
2022-11-20T05:07:25.677Z,7.60
2022-11-20T05:09:52.022Z,7.86
2022-11-20T05:12:18.353Z,7.96
2022-11-20T05:14:45.257Z,7.72
2022-11-20T05:17:12.905Z,7.80
2022-11-20T05:19:39.227Z,8.04
2022-11-20T05:22:06.364Z,7.97
2022-11-20T05:24:32.692Z,7.73
2022-11-20T05:26:59.198Z,7.67
2022-11-20T05:29:25.564Z,7.55
2022-11-20T05:31:51.904Z,7.55
2022-11-20T05:34:18.429Z,7.33
2022-11-20T05:36:44.939Z,7.31
2022-11-20T05:39:11.326Z,7.28
2022-11-20T05:41:37.658Z,7.15
2022-11-20T05:44:04.119Z,6.98
2022-11-20T05:46:30.442Z,6.90
2022-11-20T05:48:58.273Z,6.88
2022-11-20T05:51:25.453Z,6.88
2022-11-20T05:53:51.864Z,6.91
2022-11-20T05:56:22.206Z,7.04
2022-11-20T05:58:49.583Z,7.00
2022-11-20T06:01:18.005Z,7.13
2022-11-20T06:03:48.864Z,7.10
2022-11-20T06:06:16.655Z,7.21
2022-11-20T06:08:43.520Z,7.37
2022-11-20T06:11:13.503Z,7.29
2022-11-20T06:13:42.477Z,7.08
2022-11-20T06:16:11.178Z,6.90
2022-11-20T06:18:38.110Z,6.87
2022-11-20T06:21:10.704Z,6.64
2022-11-20T06:23:37.529Z,6.64
2022-11-20T06:26:06.390Z,6.44
2022-11-20T06:28:33.007Z,6.31
2022-11-20T06:30:59.794Z,6.31
2022-11-20T06:33:26.443Z,6.16
2022-11-20T06:35:58.450Z,6.33
2022-11-20T06:38:27.896Z,6.42
2022-11-20T06:40:54.922Z,6.44
2022-11-20T06:43:22.693Z,6.61
2022-11-20T06:45:54.406Z,6.45
2022-11-20T06:48:21.141Z,6.39
2022-11-20T06:50:47.684Z,6.45
2022-11-20T06:53:14.034Z,6.45
2022-11-20T06:55:44.835Z,6.45
2022-11-20T06:58:11.798Z,6.58
2022-11-20T07:00:38.176Z,6.75
2022-11-20T07:03:05.246Z,6.73
2022-11-20T07:05:31.690Z,6.69
2022-11-20T07:07:58.685Z,6.63
2022-11-20T07:10:25.548Z,6.58
2022-11-20T07:12:53.190Z,6.43
2022-11-20T07:15:21.255Z,6.46
2022-11-20T07:17:47.882Z,6.36
2022-11-20T07:20:15.057Z,6.44
2022-11-20T07:22:42.004Z,6.43
2022-11-20T07:25:09.498Z,6.54
2022-11-20T07:27:36.363Z,6.65
2022-11-20T07:30:04.680Z,6.71
2022-11-20T07:32:31.294Z,6.64
2022-11-20T07:34:57.609Z,6.71
2022-11-20T07:37:24.112Z,6.52
2022-11-20T07:39:50.466Z,6.51
2022-11-20T07:42:16.861Z,6.43
2022-11-20T07:44:43.201Z,6.31
2022-11-20T07:47:09.518Z,6.22
2022-11-20T07:49:35.993Z,6.26
2022-11-20T07:52:04.977Z,6.23
2022-11-20T07:54:31.796Z,6.15
2022-11-20T07:56:58.169Z,6.22
2022-11-20T07:59:24.597Z,6.27
2022-11-20T08:01:50.957Z,6.27
2022-11-20T08:04:17.498Z,6.26
2022-11-20T08:06:43.960Z,6.29
2022-11-20T08:09:10.546Z,6.30
2022-11-20T08:11:55.467Z,6.45
2022-11-20T08:14:21.831Z,6.45
2022-11-20T08:16:49.949Z,6.47
2022-11-20T08:19:18.889Z,6.52
2022-11-20T08:21:45.904Z,6.48
2022-11-20T08:24:12.612Z,6.50
2022-11-20T08:26:40.077Z,6.42
2022-11-20T08:29:07.039Z,6.41
2022-11-20T08:31:33.409Z,6.43
2022-11-20T08:33:59.809Z,6.41
2022-11-20T08:36:26.362Z,6.44
2022-11-20T08:38:56.803Z,6.50
2022-11-20T08:41:27.557Z,6.54
2022-11-20T08:43:55.992Z,6.63
2022-11-20T08:46:23.815Z,6.63
2022-11-20T08:48:50.383Z,6.74
2022-11-20T08:51:17.706Z,6.89
2022-11-20T08:53:44.377Z,6.93
2022-11-20T08:56:10.940Z,6.91
2022-11-20T08:59:01.791Z,6.90
2022-11-20T09:01:24.574Z,7.12
2022-11-20T09:03:51.113Z,7.21
2022-11-20T09:06:17.633Z,7.14
2022-11-20T09:08:43.998Z,7.08
2022-11-20T09:11:10.645Z,7.10
2022-11-20T09:13:37.833Z,6.99
2022-11-20T09:16:07.374Z,6.96
2022-11-20T09:18:34.757Z,7.03
2022-11-20T09:21:02.663Z,7.08
2022-11-20T09:23:33.561Z,7.03
2022-11-20T09:26:03.558Z,6.97
2022-11-20T09:28:31.034Z,6.99
2022-11-20T09:30:57.369Z,7.06
2022-11-20T09:33:23.721Z,7.09
2022-11-20T09:35:50.052Z,7.12
2022-11-20T09:38:16.416Z,7.05
2022-11-20T09:40:59.213Z,7.02
2022-11-20T09:43:57.920Z,7.07
2022-11-20T09:46:43.954Z,7.30
2022-11-20T09:49:34.739Z,7.38
2022-11-20T09:52:26.808Z,7.35
2022-11-20T09:54:55.159Z,7.29
2022-11-20T09:57:26.255Z,7.26
2022-11-20T09:59:59.450Z,7.38
2022-11-20T10:02:35.734Z,7.49
2022-11-20T10:05:28.361Z,7.50
2022-11-20T10:08:02.892Z,7.62
2022-11-20T10:10:42.688Z,7.53
2022-11-20T10:13:32.865Z,7.54
2022-11-20T10:16:36.657Z,7.50
2022-11-20T10:19:20.351Z,7.56
2022-11-20T10:22:12.197Z,7.60
2022-11-20T10:24:55.209Z,7.63
2022-11-20T10:27:27.525Z,7.59
2022-11-20T10:30:10.810Z,7.72
2022-11-20T10:32:43.209Z,7.89
2022-11-20T10:35:36.628Z,7.94
2022-11-20T10:38:10.766Z,8.05
2022-11-20T10:40:46.710Z,8.19
2022-11-20T10:43:16.196Z,8.51
2022-11-20T10:46:00.006Z,8.32
2022-11-20T10:48:28.837Z,8.18
2022-11-20T10:51:31.361Z,8.08
2022-11-20T10:54:07.435Z,8.19
2022-11-20T10:56:48.336Z,8.03
2022-11-20T10:59:55.154Z,7.93
2022-11-20T11:02:33.278Z,8.07
2022-11-20T11:05:15.620Z,8.04
2022-11-20T11:07:43.179Z,7.84
2022-11-20T11:10:26.933Z,8.01
2022-11-20T11:12:53.432Z,7.89
2022-11-20T11:15:37.805Z,7.97
2022-11-20T11:18:04.433Z,7.89
2022-11-20T11:20:31.053Z,7.88
2022-11-20T11:22:59.736Z,7.86
2022-11-20T11:25:36.586Z,8.01
2022-11-20T11:28:25.708Z,8.13
2022-11-20T11:30:52.774Z,8.01
2022-11-20T11:33:22.547Z,8.05
2022-11-20T11:35:53.365Z,8.23
2022-11-20T11:38:38.033Z,8.54
2022-11-20T11:41:05.934Z,8.66
2022-11-20T11:43:54.003Z,8.65
2022-11-20T11:46:35.830Z,8.57
2022-11-20T11:49:16.248Z,8.63
2022-11-20T11:52:14.860Z,8.62
2022-11-20T11:54:51.894Z,8.66
2022-11-20T11:57:28.022Z,8.63
2022-11-20T12:00:09.749Z,8.54
2022-11-20T12:02:53.403Z,8.55
2022-11-20T12:05:30.202Z,8.47
2022-11-20T12:08:27.285Z,8.70
2022-11-20T12:11:25.109Z,8.57
2022-11-20T12:13:59.256Z,8.56
2022-11-20T12:16:25.596Z,8.48
2022-11-20T12:18:53.548Z,8.45
2022-11-20T12:21:28.536Z,8.37
2022-11-20T12:24:07.569Z,8.56
2022-11-20T12:26:46.447Z,8.59
2022-11-20T12:29:27.257Z,8.63
2022-11-20T12:32:15.217Z,8.57
2022-11-20T12:34:58.494Z,8.62
2022-11-20T12:37:38.291Z,8.51
2022-11-20T12:40:34.480Z,8.68
2022-11-20T12:43:39.686Z,8.75
2022-11-20T12:46:17.666Z,8.88
2022-11-20T12:48:50.103Z,8.72
2022-11-20T12:51:25.416Z,8.82
2022-11-20T12:54:07.290Z,9.04
2022-11-20T12:56:43.945Z,9.02
2022-11-20T12:59:17.653Z,9.22
2022-11-20T13:01:51.510Z,9.10
2022-11-20T13:04:40.113Z,9.79
2022-11-20T13:07:15.307Z,10.41
2022-11-20T13:09:46.830Z,10.82
2022-11-20T13:12:24.542Z,11.08
2022-11-20T13:15:15.818Z,11.51
2022-11-20T13:17:52.682Z,11.32
2022-11-20T13:20:20.194Z,11.39
2022-11-20T13:22:51.866Z,11.32
2022-11-20T13:25:34.693Z,9.89
2022-11-20T13:28:05.206Z,10.14
2022-11-20T13:30:32.399Z,9.94
2022-11-20T13:33:01.961Z,10.15
2022-11-20T13:35:41.152Z,10.08
2022-11-20T13:38:14.115Z,10.20
2022-11-20T13:41:24.665Z,10.71
2022-11-20T13:43:53.268Z,11.03
2022-11-20T13:46:25.401Z,11.36
2022-11-20T13:48:55.673Z,10.72
2022-11-20T13:51:31.237Z,10.86
2022-11-20T13:54:18.710Z,10.37
2022-11-20T13:57:10.834Z,10.31
2022-11-20T14:00:05.800Z,10.05
2022-11-20T14:02:32.323Z,10.47
2022-11-20T14:05:00.672Z,10.48
2022-11-20T14:07:35.873Z,10.62
2022-11-20T14:10:02.400Z,10.49
2022-11-20T14:12:34.705Z,10.28
2022-11-20T14:15:01.309Z,9.84
2022-11-20T14:17:35.519Z,9.89
2022-11-20T14:20:13.335Z,9.81
2022-11-20T14:22:39.641Z,9.94
2022-11-20T14:25:15.235Z,9.70
2022-11-20T14:27:43.657Z,9.71
2022-11-20T14:30:22.355Z,9.31
2022-11-20T14:32:50.020Z,9.14
2022-11-20T14:35:26.486Z,9.48
2022-11-20T14:37:53.587Z,9.29
2022-11-20T14:40:26.591Z,9.50
2022-11-20T14:42:53.012Z,9.72
2022-11-20T14:45:20.606Z,10.04
2022-11-20T14:47:47.610Z,10.17
2022-11-20T14:50:19.740Z,10.43
2022-11-20T14:52:56.013Z,10.09
2022-11-20T14:55:31.875Z,9.92
2022-11-20T14:58:04.113Z,10.12
2022-11-20T15:00:33.662Z,10.41
2022-11-20T15:03:00.027Z,10.39
2022-11-20T15:05:46.129Z,10.18
2022-11-20T15:08:13.830Z,10.04
2022-11-20T15:10:49.784Z,10.43
2022-11-20T15:13:37.540Z,10.72
2022-11-20T15:16:10.933Z,11.01
2022-11-20T15:18:40.543Z,11.27
2022-11-20T15:21:15.441Z,11.38
2022-11-20T15:23:42.424Z,11.43
2022-11-20T15:26:14.207Z,11.45
2022-11-20T15:28:45.098Z,11.57
2022-11-20T15:31:16.736Z,11.66
2022-11-20T15:33:43.509Z,11.40
2022-11-20T15:36:10.734Z,11.40
2022-11-20T15:38:37.973Z,11.18
2022-11-20T15:41:04.850Z,10.86
2022-11-20T15:43:31.206Z,10.88
2022-11-20T15:46:23.865Z,10.79
2022-11-20T15:48:55.071Z,10.47
2022-11-20T15:51:29.856Z,10.30
2022-11-20T15:53:57.284Z,10.27
2022-11-20T15:56:24.199Z,10.28
2022-11-20T15:58:50.578Z,10.31
2022-11-20T16:01:19.207Z,10.55
2022-11-20T16:03:46.050Z,10.58
2022-11-20T16:06:12.700Z,10.71
2022-11-20T16:08:39.513Z,10.74
2022-11-20T16:11:05.916Z,10.61
2022-11-20T16:13:51.406Z,10.73
2022-11-20T16:16:30.962Z,10.88
2022-11-20T16:18:57.874Z,11.02
2022-11-20T16:21:33.388Z,11.02
2022-11-20T16:24:01.439Z,11.05
2022-11-20T16:26:28.670Z,11.10
2022-11-20T16:28:55.453Z,11.09
2022-11-20T16:31:22.607Z,11.13
2022-11-20T16:33:53.599Z,11.09
2022-11-20T16:36:21.476Z,11.01
2022-11-20T16:38:53.305Z,11.01
2022-11-20T16:41:19.960Z,10.98
2022-11-20T16:43:51.546Z,10.98
2022-11-20T16:46:20.609Z,10.92
2022-11-20T16:48:54.817Z,10.74
2022-11-20T16:51:21.910Z,10.70
2022-11-20T16:53:50.447Z,10.71
2022-11-20T16:56:19.739Z,10.62
2022-11-20T16:58:47.918Z,10.71
2022-11-20T17:01:16.788Z,10.52
2022-11-20T17:03:46.242Z,10.42
2022-11-20T17:06:17.892Z,10.48
2022-11-20T17:08:45.042Z,10.49
2022-11-20T17:11:14.158Z,10.48
2022-11-20T17:13:40.899Z,10.53
2022-11-20T17:16:10.157Z,10.45
2022-11-20T17:18:36.814Z,10.40
2022-11-20T17:21:05.296Z,10.34
2022-11-20T17:23:33.177Z,10.30
2022-11-20T17:26:06.427Z,10.40
2022-11-20T17:28:33.590Z,10.26
2022-11-20T17:31:05.488Z,9.98
2022-11-20T17:33:33.665Z,9.66
2022-11-20T17:35:59.981Z,9.58
2022-11-20T17:38:26.419Z,9.81
2022-11-20T17:40:53.032Z,9.92
2022-11-20T17:43:19.581Z,9.71
2022-11-20T17:45:46.182Z,9.66
2022-11-20T17:48:12.497Z,9.78
2022-11-20T17:50:38.814Z,9.85
2022-11-20T17:53:05.143Z,10.00
2022-11-20T17:55:55.504Z,9.95
2022-11-20T17:58:22.194Z,9.86
2022-11-20T18:00:48.513Z,9.64
2022-11-20T18:03:14.889Z,9.56
2022-11-20T18:05:41.234Z,9.29
2022-11-20T18:08:07.558Z,9.15
2022-11-20T18:10:35.096Z,8.88
2022-11-20T18:13:01.439Z,8.93
2022-11-20T18:15:27.830Z,8.90
2022-11-20T18:17:54.375Z,8.71
2022-11-20T18:20:29.354Z,8.81
2022-11-20T18:22:57.036Z,8.82
2022-11-20T18:25:23.480Z,8.63
2022-11-20T18:27:49.981Z,8.29
2022-11-20T18:30:18.973Z,8.01
2022-11-20T18:32:45.277Z,7.80
2022-11-20T18:35:11.660Z,7.96
2022-11-20T18:37:37.975Z,7.88
2022-11-20T18:40:04.975Z,7.81
2022-11-20T18:42:49.713Z,7.97
2022-11-20T18:45:16.166Z,7.99
2022-11-20T18:47:43.770Z,7.80
2022-11-20T18:50:10.261Z,7.86
2022-11-20T18:52:44.146Z,7.75
2022-11-20T18:55:11.021Z,7.86
2022-11-20T18:57:37.343Z,7.84
2022-11-20T19:00:09.236Z,7.95
2022-11-20T19:02:40.961Z,7.87
2022-11-20T19:05:08.961Z,7.87
2022-11-20T19:07:35.361Z,7.76
2022-11-20T19:10:03.912Z,7.66
2022-11-20T19:12:30.614Z,7.59
2022-11-20T19:14:56.953Z,7.20
2022-11-20T19:17:23.330Z,7.22
2022-11-20T19:19:50.313Z,7.40
2022-11-20T19:22:17.010Z,7.18
2022-11-20T19:24:43.361Z,7.10
2022-11-20T19:27:09.750Z,7.06
2022-11-20T19:29:36.591Z,6.81
2022-11-20T19:32:04.338Z,6.88
2022-11-20T19:34:31.368Z,6.82
2022-11-20T19:36:57.959Z,6.74
2022-11-20T19:39:24.539Z,6.63
2022-11-20T19:41:51.071Z,6.59
2022-11-20T19:44:17.822Z,6.47
2022-11-20T19:46:44.687Z,6.57
2022-11-20T19:49:13.874Z,6.44
2022-11-20T19:51:45.737Z,6.43
2022-11-20T19:54:12.763Z,6.20
2022-11-20T19:56:39.217Z,6.18
2022-11-20T19:59:05.663Z,6.28
2022-11-20T20:01:32.270Z,6.07
2022-11-20T20:04:05.117Z,6.06
2022-11-20T20:06:33.508Z,5.98
2022-11-20T20:09:04.178Z,6.03
2022-11-20T20:11:32.913Z,5.83
2022-11-20T20:14:04.287Z,5.82
2022-11-20T20:16:30.976Z,5.93
2022-11-20T20:18:59.381Z,5.96
2022-11-20T20:21:25.769Z,6.24
2022-11-20T20:23:55.756Z,6.17
2022-11-20T20:26:23.962Z,5.85
2022-11-20T20:28:50.880Z,5.73
2022-11-20T20:31:20.923Z,5.87
2022-11-20T20:33:47.281Z,5.76
2022-11-20T20:36:16.310Z,5.70
2022-11-20T20:38:44.126Z,5.66
2022-11-20T20:41:10.567Z,5.65
2022-11-20T20:43:56.546Z,5.61
2022-11-20T20:46:23.615Z,5.46
2022-11-20T20:48:54.197Z,5.51
2022-11-20T20:51:21.127Z,5.45
2022-11-20T20:53:47.485Z,5.50
2022-11-20T20:56:14.017Z,5.61
2022-11-20T20:58:40.953Z,5.68
2022-11-20T21:01:09.543Z,5.68
2022-11-20T21:03:36.391Z,5.63
2022-11-20T21:06:04.433Z,5.67
2022-11-20T21:08:30.865Z,5.69
2022-11-20T21:11:06.191Z,5.74
2022-11-20T21:13:33.959Z,5.73
2022-11-20T21:16:00.655Z,5.64
2022-11-20T21:18:27.412Z,5.65
2022-11-20T21:21:12.994Z,5.64
2022-11-20T21:23:39.749Z,5.54
2022-11-20T21:26:08.096Z,5.58
2022-11-20T21:28:37.303Z,5.50
2022-11-20T21:31:09.157Z,5.54
2022-11-20T21:33:37.493Z,5.55
2022-11-20T21:36:04.169Z,5.68
2022-11-20T21:38:30.511Z,5.74
2022-11-20T21:41:00.501Z,5.57
2022-11-20T21:43:27.570Z,5.75
2022-11-20T21:45:56.494Z,5.77
2022-11-20T21:48:23.509Z,5.87
2022-11-20T21:50:49.821Z,5.81
2022-11-20T21:53:16.138Z,5.96
2022-11-20T21:55:42.482Z,5.90
2022-11-20T21:58:08.860Z,5.96
2022-11-20T22:00:35.179Z,5.93
2022-11-20T22:03:01.577Z,5.99
2022-11-20T22:05:27.894Z,5.94
2022-11-20T22:07:54.370Z,6.01
2022-11-20T22:10:20.764Z,5.95
2022-11-20T22:12:47.141Z,5.90
2022-11-20T22:15:13.694Z,5.87
2022-11-20T22:18:15.262Z,5.88
2022-11-20T22:20:41.639Z,5.81
2022-11-20T22:23:07.994Z,5.78
2022-11-20T22:25:34.386Z,5.74
2022-11-20T22:28:00.756Z,5.83
2022-11-20T22:30:27.102Z,6.05
2022-11-20T22:32:55.596Z,6.09
2022-11-20T22:35:22.324Z,5.97
2022-11-20T22:37:49.475Z,5.96
2022-11-20T22:40:16.361Z,5.98
2022-11-20T22:42:46.440Z,6.13
2022-11-20T22:45:13.949Z,6.07
2022-11-20T22:47:40.281Z,6.03
2022-11-20T22:50:07.032Z,5.98
2022-11-20T22:52:33.539Z,5.95
2022-11-20T22:54:59.838Z,6.07
2022-11-20T22:57:26.235Z,6.06
2022-11-20T23:00:02.161Z,5.91
2022-11-20T23:02:28.497Z,6.03
2022-11-20T23:04:54.932Z,5.84
2022-11-20T23:07:21.291Z,5.92
2022-11-20T23:09:47.630Z,5.97
2022-11-20T23:12:13.977Z,5.90
2022-11-20T23:14:40.594Z,5.92
2022-11-20T23:17:06.917Z,5.96
2022-11-20T23:19:33.218Z,5.91
2022-11-20T23:21:59.544Z,6.02
2022-11-20T23:24:26.084Z,5.92
2022-11-20T23:26:52.851Z,5.93
2022-11-20T23:29:19.190Z,6.05
2022-11-20T23:31:45.577Z,5.98
2022-11-20T23:34:12.070Z,6.00
2022-11-20T23:36:38.429Z,6.02
2022-11-20T23:39:04.817Z,6.09
2022-11-20T23:41:31.153Z,6.12
2022-11-20T23:43:57.469Z,6.18
2022-11-20T23:46:23.793Z,6.13
2022-11-20T23:48:59.509Z,6.11
2022-11-20T23:51:25.847Z,6.13
2022-11-20T23:53:52.198Z,6.11
2022-11-20T23:56:18.543Z,6.10
2022-11-20T23:58:44.931Z,6.11
